sensor_id;sensor_type;location;lat;lon;timestamp;temperature;humidity
40638;DHT22;26336;44.696;10.622;2023-08-01T00:02:59;26.50;99.30
40638;DHT22;26336;44.696;10.622;2023-08-01T00:06:06;26.50;99.40
40638;DHT22;26336;44.696;10.622;2023-08-01T00:09:10;26.50;99.50
40638;DHT22;26336;44.696;10.622;2023-08-01T00:12:15;26.50;99.60
40638;DHT22;26336;44.696;10.622;2023-08-01T00:15:20;26.50;99.90
40638;DHT22;26336;44.696;10.622;2023-08-01T00:18:24;26.50;99.90
40638;DHT22;26336;44.696;10.622;2023-08-01T00:21:30;26.40;99.90
40638;DHT22;26336;44.696;10.622;2023-08-01T00:24:36;26.40;99.90
40638;DHT22;26336;44.696;10.622;2023-08-01T00:28:01;26.40;99.90
40638;DHT22;26336;44.696;10.622;2023-08-01T00:31:19;26.30;99.90
40638;DHT22;26336;44.696;10.622;2023-08-01T00:38:43;26.20;99.90
40638;DHT22;26336;44.696;10.622;2023-08-01T00:42:21;26.20;99.90
40638;DHT22;26336;44.696;10.622;2023-08-01T00:45:30;26.10;99.90
40638;DHT22;26336;44.696;10.622;2023-08-01T00:48:36;26.10;99.90
40638;DHT22;26336;44.696;10.622;2023-08-01T00:52:11;26.00;99.90
40638;DHT22;26336;44.696;10.622;2023-08-01T00:59:19;26.00;99.90
40638;DHT22;26336;44.696;10.622;2023-08-01T01:02:53;26.00;99.90
40638;DHT22;26336;44.696;10.622;2023-08-01T01:06:18;26.00;99.90
40638;DHT22;26336;44.696;10.622;2023-08-01T01:09:45;25.90;99.90
40638;DHT22;26336;44.696;10.622;2023-08-01T01:13:14;25.80;99.90
40638;DHT22;26336;44.696;10.622;2023-08-01T01:17:09;25.80;99.90
40638;DHT22;26336;44.696;10.622;2023-08-01T01:20:25;25.70;99.90
40638;DHT22;26336;44.696;10.622;2023-08-01T01:24:25;25.70;99.90
40638;DHT22;26336;44.696;10.622;2023-08-01T01:27:48;25.70;99.90
40638;DHT22;26336;44.696;10.622;2023-08-01T01:31:01;25.60;99.90
40638;DHT22;26336;44.696;10.622;2023-08-01T01:34:08;25.60;99.80
40638;DHT22;26336;44.696;10.622;2023-08-01T01:37:12;25.60;99.70
40638;DHT22;26336;44.696;10.622;2023-08-01T01:40:20;25.50;99.60
40638;DHT22;26336;44.696;10.622;2023-08-01T01:43:24;25.50;99.50
40638;DHT22;26336;44.696;10.622;2023-08-01T01:46:28;25.50;99.40
40638;DHT22;26336;44.696;10.622;2023-08-01T01:49:33;25.50;99.40
40638;DHT22;26336;44.696;10.622;2023-08-01T01:52:37;25.50;99.50
40638;DHT22;26336;44.696;10.622;2023-08-01T01:55:42;25.50;99.50
40638;DHT22;26336;44.696;10.622;2023-08-01T01:58:46;25.40;99.60
40638;DHT22;26336;44.696;10.622;2023-08-01T02:01:50;25.40;99.60
40638;DHT22;26336;44.696;10.622;2023-08-01T02:04:55;25.40;99.60
40638;DHT22;26336;44.696;10.622;2023-08-01T02:07:59;25.40;99.70
40638;DHT22;26336;44.696;10.622;2023-08-01T02:11:03;25.40;99.70
40638;DHT22;26336;44.696;10.622;2023-08-01T02:14:07;25.30;99.80
40638;DHT22;26336;44.696;10.622;2023-08-01T02:17:11;25.30;99.90
40638;DHT22;26336;44.696;10.622;2023-08-01T02:20:15;25.30;99.90
40638;DHT22;26336;44.696;10.622;2023-08-01T02:23:19;25.30;99.80
40638;DHT22;26336;44.696;10.622;2023-08-01T02:26:25;25.20;99.70
40638;DHT22;26336;44.696;10.622;2023-08-01T02:29:29;25.20;99.80
40638;DHT22;26336;44.696;10.622;2023-08-01T02:32:36;25.20;99.80
40638;DHT22;26336;44.696;10.622;2023-08-01T02:35:41;25.10;99.70
40638;DHT22;26336;44.696;10.622;2023-08-01T02:38:45;25.10;99.80
40638;DHT22;26336;44.696;10.622;2023-08-01T02:41:49;25.10;99.80
40638;DHT22;26336;44.696;10.622;2023-08-01T02:44:53;25.00;99.80
40638;DHT22;26336;44.696;10.622;2023-08-01T02:47:57;25.10;99.80
40638;DHT22;26336;44.696;10.622;2023-08-01T02:51:01;25.00;99.90
40638;DHT22;26336;44.696;10.622;2023-08-01T02:54:05;25.00;99.90
40638;DHT22;26336;44.696;10.622;2023-08-01T02:57:09;24.80;99.90
40638;DHT22;26336;44.696;10.622;2023-08-01T03:00:14;24.70;99.90
40638;DHT22;26336;44.696;10.622;2023-08-01T03:03:21;24.60;99.90
40638;DHT22;26336;44.696;10.622;2023-08-01T03:06:26;24.70;99.90
40638;DHT22;26336;44.696;10.622;2023-08-01T03:09:30;24.70;99.90
40638;DHT22;26336;44.696;10.622;2023-08-01T03:12:35;24.70;99.90
40638;DHT22;26336;44.696;10.622;2023-08-01T03:15:39;24.70;99.90
40638;DHT22;26336;44.696;10.622;2023-08-01T03:18:44;24.80;99.90
40638;DHT22;26336;44.696;10.622;2023-08-01T03:21:48;24.80;99.90
40638;DHT22;26336;44.696;10.622;2023-08-01T03:24:54;24.70;99.90
40638;DHT22;26336;44.696;10.622;2023-08-01T03:27:59;24.70;99.90
40638;DHT22;26336;44.696;10.622;2023-08-01T03:31:03;24.60;99.90
40638;DHT22;26336;44.696;10.622;2023-08-01T03:34:07;24.60;99.90
40638;DHT22;26336;44.696;10.622;2023-08-01T03:37:14;24.40;99.90
40638;DHT22;26336;44.696;10.622;2023-08-01T03:40:18;24.30;99.90
40638;DHT22;26336;44.696;10.622;2023-08-01T03:43:23;24.40;99.90
40638;DHT22;26336;44.696;10.622;2023-08-01T03:46:27;24.40;99.90
40638;DHT22;26336;44.696;10.622;2023-08-01T03:49:31;24.30;99.90
40638;DHT22;26336;44.696;10.622;2023-08-01T03:52:36;24.30;99.90
40638;DHT22;26336;44.696;10.622;2023-08-01T03:55:40;24.10;99.90
40638;DHT22;26336;44.696;10.622;2023-08-01T03:58:46;24.20;99.90
40638;DHT22;26336;44.696;10.622;2023-08-01T04:01:50;24.10;99.90
40638;DHT22;26336;44.696;10.622;2023-08-01T04:04:54;23.90;99.90
40638;DHT22;26336;44.696;10.622;2023-08-01T04:07:59;23.90;99.90
40638;DHT22;26336;44.696;10.622;2023-08-01T04:11:03;24.00;99.90
40638;DHT22;26336;44.696;10.622;2023-08-01T04:14:10;24.10;99.50
40638;DHT22;26336;44.696;10.622;2023-08-01T04:17:13;24.10;99.70
40638;DHT22;26336;44.696;10.622;2023-08-01T04:20:17;24.10;99.20
40638;DHT22;26336;44.696;10.622;2023-08-01T04:23:21;24.10;99.10
40638;DHT22;26336;44.696;10.622;2023-08-01T04:26:25;23.90;99.20
40638;DHT22;26336;44.696;10.622;2023-08-01T04:29:31;24.00;99.10
40638;DHT22;26336;44.696;10.622;2023-08-01T04:32:35;24.10;99.00
40638;DHT22;26336;44.696;10.622;2023-08-01T04:35:39;24.10;98.90
40638;DHT22;26336;44.696;10.622;2023-08-01T04:38:43;24.20;98.90
40638;DHT22;26336;44.696;10.622;2023-08-01T04:41:47;24.20;99.00
40638;DHT22;26336;44.696;10.622;2023-08-01T04:44:53;24.20;99.00
40638;DHT22;26336;44.696;10.622;2023-08-01T04:47:57;24.20;99.00
40638;DHT22;26336;44.696;10.622;2023-08-01T04:51:01;24.20;98.90
40638;DHT22;26336;44.696;10.622;2023-08-01T04:54:06;24.30;98.90
40638;DHT22;26336;44.696;10.622;2023-08-01T04:57:10;24.30;99.00
40638;DHT22;26336;44.696;10.622;2023-08-01T05:00:14;24.40;99.00
40638;DHT22;26336;44.696;10.622;2023-08-01T05:03:18;24.40;99.00
40638;DHT22;26336;44.696;10.622;2023-08-01T05:06:23;24.40;98.90
40638;DHT22;26336;44.696;10.622;2023-08-01T05:09:27;24.40;98.60
40638;DHT22;26336;44.696;10.622;2023-08-01T05:12:31;24.40;98.50
40638;DHT22;26336;44.696;10.622;2023-08-01T05:15:36;24.40;98.60
40638;DHT22;26336;44.696;10.622;2023-08-01T05:18:40;24.40;98.60
40638;DHT22;26336;44.696;10.622;2023-08-01T05:21:44;24.40;98.70
40638;DHT22;26336;44.696;10.622;2023-08-01T05:24:50;24.40;98.80
40638;DHT22;26336;44.696;10.622;2023-08-01T05:27:53;24.40;98.80
40638;DHT22;26336;44.696;10.622;2023-08-01T05:30:58;24.40;98.90
40638;DHT22;26336;44.696;10.622;2023-08-01T05:34:02;24.40;99.10
40638;DHT22;26336;44.696;10.622;2023-08-01T05:37:05;24.40;99.70
40638;DHT22;26336;44.696;10.622;2023-08-01T05:40:10;24.40;99.90
40638;DHT22;26336;44.696;10.622;2023-08-01T05:43:14;24.40;99.90
40638;DHT22;26336;44.696;10.622;2023-08-01T05:46:18;24.40;99.90
40638;DHT22;26336;44.696;10.622;2023-08-01T05:49:23;24.40;99.90
40638;DHT22;26336;44.696;10.622;2023-08-01T05:52:27;24.40;99.90
40638;DHT22;26336;44.696;10.622;2023-08-01T05:55:31;24.40;99.90
40638;DHT22;26336;44.696;10.622;2023-08-01T05:58:36;24.40;99.90
40638;DHT22;26336;44.696;10.622;2023-08-01T06:01:39;24.40;99.90
40638;DHT22;26336;44.696;10.622;2023-08-01T06:04:44;24.40;99.90
40638;DHT22;26336;44.696;10.622;2023-08-01T06:07:48;24.40;99.90
40638;DHT22;26336;44.696;10.622;2023-08-01T06:10:52;24.50;99.90
40638;DHT22;26336;44.696;10.622;2023-08-01T06:13:57;24.50;99.90
40638;DHT22;26336;44.696;10.622;2023-08-01T06:17:01;24.50;99.90
40638;DHT22;26336;44.696;10.622;2023-08-01T06:20:06;24.50;99.90
40638;DHT22;26336;44.696;10.622;2023-08-01T06:23:09;24.50;99.90
40638;DHT22;26336;44.696;10.622;2023-08-01T06:26:13;24.60;99.90
40638;DHT22;26336;44.696;10.622;2023-08-01T06:29:19;24.60;99.90
40638;DHT22;26336;44.696;10.622;2023-08-01T06:32:23;24.60;99.70
40638;DHT22;26336;44.696;10.622;2023-08-01T06:35:27;24.70;99.40
40638;DHT22;26336;44.696;10.622;2023-08-01T06:38:31;24.70;99.00
40638;DHT22;26336;44.696;10.622;2023-08-01T06:41:35;24.70;98.40
40638;DHT22;26336;44.696;10.622;2023-08-01T06:44:40;24.80;98.10
40638;DHT22;26336;44.696;10.622;2023-08-01T06:47:44;24.80;98.10
40638;DHT22;26336;44.696;10.622;2023-08-01T06:50:49;24.80;97.90
40638;DHT22;26336;44.696;10.622;2023-08-01T06:53:53;24.80;98.10
40638;DHT22;26336;44.696;10.622;2023-08-01T06:56:57;24.80;97.50
40638;DHT22;26336;44.696;10.622;2023-08-01T07:00:03;24.90;97.30
40638;DHT22;26336;44.696;10.622;2023-08-01T07:03:08;24.90;97.40
40638;DHT22;26336;44.696;10.622;2023-08-01T07:06:14;24.90;97.30
40638;DHT22;26336;44.696;10.622;2023-08-01T07:09:20;24.90;96.60
40638;DHT22;26336;44.696;10.622;2023-08-01T07:12:24;24.90;96.30
40638;DHT22;26336;44.696;10.622;2023-08-01T07:15:28;25.00;96.50
40638;DHT22;26336;44.696;10.622;2023-08-01T07:18:32;25.00;96.70
40638;DHT22;26336;44.696;10.622;2023-08-01T07:21:36;25.00;97.00
40638;DHT22;26336;44.696;10.622;2023-08-01T07:24:40;25.00;97.20
40638;DHT22;26336;44.696;10.622;2023-08-01T07:27:45;24.90;97.40
40638;DHT22;26336;44.696;10.622;2023-08-01T07:30:58;25.00;97.50
40638;DHT22;26336;44.696;10.622;2023-08-01T07:34:02;25.00;98.10
40638;DHT22;26336;44.696;10.622;2023-08-01T07:37:06;25.00;98.30
40638;DHT22;26336;44.696;10.622;2023-08-01T07:40:10;25.10;98.30
40638;DHT22;26336;44.696;10.622;2023-08-01T07:43:15;25.10;98.60
40638;DHT22;26336;44.696;10.622;2023-08-01T07:46:19;25.10;98.80
40638;DHT22;26336;44.696;10.622;2023-08-01T07:49:23;25.20;99.00
40638;DHT22;26336;44.696;10.622;2023-08-01T07:52:27;25.20;98.90
40638;DHT22;26336;44.696;10.622;2023-08-01T07:55:34;25.20;99.00
40638;DHT22;26336;44.696;10.622;2023-08-01T07:58:38;25.20;99.20
40638;DHT22;26336;44.696;10.622;2023-08-01T08:01:42;25.20;99.50
40638;DHT22;26336;44.696;10.622;2023-08-01T08:04:46;25.30;99.70
40638;DHT22;26336;44.696;10.622;2023-08-01T08:07:50;25.30;99.90
40638;DHT22;26336;44.696;10.622;2023-08-01T08:10:54;25.30;99.90
40638;DHT22;26336;44.696;10.622;2023-08-01T08:13:59;25.40;99.90
40638;DHT22;26336;44.696;10.622;2023-08-01T08:17:03;25.30;99.90
40638;DHT22;26336;44.696;10.622;2023-08-01T08:20:07;25.30;99.90
40638;DHT22;26336;44.696;10.622;2023-08-01T08:23:12;25.30;99.90
40638;DHT22;26336;44.696;10.622;2023-08-01T08:26:19;25.40;99.90
40638;DHT22;26336;44.696;10.622;2023-08-01T08:29:23;25.40;99.90
40638;DHT22;26336;44.696;10.622;2023-08-01T08:32:27;25.50;99.80
40638;DHT22;26336;44.696;10.622;2023-08-01T08:35:31;25.50;99.30
40638;DHT22;26336;44.696;10.622;2023-08-01T08:38:35;25.60;99.00
40638;DHT22;26336;44.696;10.622;2023-08-01T08:41:46;25.70;98.90
40638;DHT22;26336;44.696;10.622;2023-08-01T08:44:55;25.70;99.00
40638;DHT22;26336;44.696;10.622;2023-08-01T08:48:06;25.80;98.90
40638;DHT22;26336;44.696;10.622;2023-08-01T08:51:13;25.90;98.70
40638;DHT22;26336;44.696;10.622;2023-08-01T08:54:18;26.00;98.10
40638;DHT22;26336;44.696;10.622;2023-08-01T08:57:23;26.00;97.50
40638;DHT22;26336;44.696;10.622;2023-08-01T09:00:27;26.10;97.20
40638;DHT22;26336;44.696;10.622;2023-08-01T09:03:32;26.10;97.20
40638;DHT22;26336;44.696;10.622;2023-08-01T09:06:47;26.20;96.90
40638;DHT22;26336;44.696;10.622;2023-08-01T09:09:51;26.30;96.80
40638;DHT22;26336;44.696;10.622;2023-08-01T09:12:56;26.40;96.90
40638;DHT22;26336;44.696;10.622;2023-08-01T09:16:01;26.40;96.30
40638;DHT22;26336;44.696;10.622;2023-08-01T09:19:06;26.50;96.60
40638;DHT22;26336;44.696;10.622;2023-08-01T09:22:11;26.60;96.10
40638;DHT22;26336;44.696;10.622;2023-08-01T09:25:16;26.70;96.20
40638;DHT22;26336;44.696;10.622;2023-08-01T09:28:22;26.80;95.90
40638;DHT22;26336;44.696;10.622;2023-08-01T09:31:31;26.80;96.30
40638;DHT22;26336;44.696;10.622;2023-08-01T09:34:35;26.80;95.90
40638;DHT22;26336;44.696;10.622;2023-08-01T09:37:43;26.90;95.80
40638;DHT22;26336;44.696;10.622;2023-08-01T09:40:50;26.90;95.30
40638;DHT22;26336;44.696;10.622;2023-08-01T09:43:56;26.90;95.50
40638;DHT22;26336;44.696;10.622;2023-08-01T09:47:02;27.00;95.50
40638;DHT22;26336;44.696;10.622;2023-08-01T09:50:13;27.00;95.00
40638;DHT22;26336;44.696;10.622;2023-08-01T09:53:23;27.10;95.40
40638;DHT22;26336;44.696;10.622;2023-08-01T09:56:27;27.20;95.60
40638;DHT22;26336;44.696;10.622;2023-08-01T09:59:33;27.20;95.70
40638;DHT22;26336;44.696;10.622;2023-08-01T10:02:38;27.20;94.90
40638;DHT22;26336;44.696;10.622;2023-08-01T10:05:47;27.30;95.20
40638;DHT22;26336;44.696;10.622;2023-08-01T10:08:52;27.30;95.00
40638;DHT22;26336;44.696;10.622;2023-08-01T10:11:57;27.40;94.80
40638;DHT22;26336;44.696;10.622;2023-08-01T10:15:01;27.50;94.50
40638;DHT22;26336;44.696;10.622;2023-08-01T10:18:08;27.60;94.50
40638;DHT22;26336;44.696;10.622;2023-08-01T10:21:16;27.70;94.20
40638;DHT22;26336;44.696;10.622;2023-08-01T10:24:21;27.70;93.80
40638;DHT22;26336;44.696;10.622;2023-08-01T10:27:26;27.70;94.40
40638;DHT22;26336;44.696;10.622;2023-08-01T10:30:31;27.80;93.80
40638;DHT22;26336;44.696;10.622;2023-08-01T10:33:40;27.90;92.80
40638;DHT22;26336;44.696;10.622;2023-08-01T10:36:56;28.00;93.30
40638;DHT22;26336;44.696;10.622;2023-08-01T10:40:03;28.10;93.60
40638;DHT22;26336;44.696;10.622;2023-08-01T10:43:27;28.20;92.80
40638;DHT22;26336;44.696;10.622;2023-08-01T10:46:45;28.20;93.20
40638;DHT22;26336;44.696;10.622;2023-08-01T10:49:50;28.20;93.30
40638;DHT22;26336;44.696;10.622;2023-08-01T10:53:08;28.20;93.60
40638;DHT22;26336;44.696;10.622;2023-08-01T10:56:17;28.20;94.10
40638;DHT22;26336;44.696;10.622;2023-08-01T10:59:22;28.30;94.50
40638;DHT22;26336;44.696;10.622;2023-08-01T11:02:28;28.40;93.00
40638;DHT22;26336;44.696;10.622;2023-08-01T11:05:32;28.40;91.10
40638;DHT22;26336;44.696;10.622;2023-08-01T11:08:37;28.50;92.30
40638;DHT22;26336;44.696;10.622;2023-08-01T11:11:42;28.70;92.90
40638;DHT22;26336;44.696;10.622;2023-08-01T11:14:49;28.70;93.40
40638;DHT22;26336;44.696;10.622;2023-08-01T11:17:57;28.70;91.20
40638;DHT22;26336;44.696;10.622;2023-08-01T11:21:01;28.70;90.80
40638;DHT22;26336;44.696;10.622;2023-08-01T11:24:08;28.70;88.40
40638;DHT22;26336;44.696;10.622;2023-08-01T11:27:18;28.70;88.80
40638;DHT22;26336;44.696;10.622;2023-08-01T11:30:30;28.70;86.70
40638;DHT22;26336;44.696;10.622;2023-08-01T11:33:35;28.80;87.80
40638;DHT22;26336;44.696;10.622;2023-08-01T11:36:42;28.80;89.10
40638;DHT22;26336;44.696;10.622;2023-08-01T11:39:47;28.90;86.80
40638;DHT22;26336;44.696;10.622;2023-08-01T11:42:56;28.90;87.00
40638;DHT22;26336;44.696;10.622;2023-08-01T11:46:01;28.90;87.10
40638;DHT22;26336;44.696;10.622;2023-08-01T11:49:08;29.00;89.20
40638;DHT22;26336;44.696;10.622;2023-08-01T11:52:23;29.00;86.70
40638;DHT22;26336;44.696;10.622;2023-08-01T11:55:27;29.20;87.10
40638;DHT22;26336;44.696;10.622;2023-08-01T11:58:49;29.20;87.40
40638;DHT22;26336;44.696;10.622;2023-08-01T12:02:08;29.20;84.90
40638;DHT22;26336;44.696;10.622;2023-08-01T12:05:21;29.20;87.20
40638;DHT22;26336;44.696;10.622;2023-08-01T12:08:31;29.20;85.50
40638;DHT22;26336;44.696;10.622;2023-08-01T12:11:40;29.20;85.90
40638;DHT22;26336;44.696;10.622;2023-08-01T12:14:45;29.20;85.50
40638;DHT22;26336;44.696;10.622;2023-08-01T12:17:49;29.20;86.00
40638;DHT22;26336;44.696;10.622;2023-08-01T12:20:54;29.30;86.20
40638;DHT22;26336;44.696;10.622;2023-08-01T12:23:58;29.30;84.60
40638;DHT22;26336;44.696;10.622;2023-08-01T12:27:23;29.40;86.90
40638;DHT22;26336;44.696;10.622;2023-08-01T12:30:30;29.40;85.30
40638;DHT22;26336;44.696;10.622;2023-08-01T12:33:34;29.40;85.30
40638;DHT22;26336;44.696;10.622;2023-08-01T12:36:41;29.50;84.80
40638;DHT22;26336;44.696;10.622;2023-08-01T12:39:45;29.50;84.60
40638;DHT22;26336;44.696;10.622;2023-08-01T12:42:49;29.50;84.40
40638;DHT22;26336;44.696;10.622;2023-08-01T12:45:53;29.50;84.60
40638;DHT22;26336;44.696;10.622;2023-08-01T12:49:01;29.50;86.50
40638;DHT22;26336;44.696;10.622;2023-08-01T12:52:06;29.50;85.60
40638;DHT22;26336;44.696;10.622;2023-08-01T12:55:10;29.40;84.00
40638;DHT22;26336;44.696;10.622;2023-08-01T12:58:14;29.40;85.80
40638;DHT22;26336;44.696;10.622;2023-08-01T13:01:19;29.40;84.10
40638;DHT22;26336;44.696;10.622;2023-08-01T13:04:23;29.50;83.20
40638;DHT22;26336;44.696;10.622;2023-08-01T13:07:28;29.50;85.10
40638;DHT22;26336;44.696;10.622;2023-08-01T13:10:37;29.40;85.80
40638;DHT22;26336;44.696;10.622;2023-08-01T13:13:41;29.40;85.60
40638;DHT22;26336;44.696;10.622;2023-08-01T13:16:48;29.40;84.90
40638;DHT22;26336;44.696;10.622;2023-08-01T13:19:53;29.40;84.80
40638;DHT22;26336;44.696;10.622;2023-08-01T13:22:57;29.50;82.70
40638;DHT22;26336;44.696;10.622;2023-08-01T13:26:01;29.50;84.50
40638;DHT22;26336;44.696;10.622;2023-08-01T13:29:06;29.50;84.80
40638;DHT22;26336;44.696;10.622;2023-08-01T13:32:09;29.50;85.30
40638;DHT22;26336;44.696;10.622;2023-08-01T13:35:14;29.50;85.00
40638;DHT22;26336;44.696;10.622;2023-08-01T13:38:18;29.50;84.30
40638;DHT22;26336;44.696;10.622;2023-08-01T13:41:25;29.60;85.50
40638;DHT22;26336;44.696;10.622;2023-08-01T13:44:29;29.60;86.30
40638;DHT22;26336;44.696;10.622;2023-08-01T13:47:33;29.70;85.90
40638;DHT22;26336;44.696;10.622;2023-08-01T13:50:38;29.70;85.60
40638;DHT22;26336;44.696;10.622;2023-08-01T13:53:42;29.80;84.40
40638;DHT22;26336;44.696;10.622;2023-08-01T13:56:45;29.80;84.10
40638;DHT22;26336;44.696;10.622;2023-08-01T13:59:50;29.80;84.90
40638;DHT22;26336;44.696;10.622;2023-08-01T14:02:53;29.80;84.60
40638;DHT22;26336;44.696;10.622;2023-08-01T14:06:05;29.80;84.90
40638;DHT22;26336;44.696;10.622;2023-08-01T14:09:10;29.90;83.90
40638;DHT22;26336;44.696;10.622;2023-08-01T14:12:14;29.90;84.20
40638;DHT22;26336;44.696;10.622;2023-08-01T14:15:25;30.00;83.90
40638;DHT22;26336;44.696;10.622;2023-08-01T14:18:29;30.10;83.10
40638;DHT22;26336;44.696;10.622;2023-08-01T14:21:34;30.00;82.50
40638;DHT22;26336;44.696;10.622;2023-08-01T14:24:38;29.90;80.80
40638;DHT22;26336;44.696;10.622;2023-08-01T14:27:42;29.90;81.00
40638;DHT22;26336;44.696;10.622;2023-08-01T14:30:46;29.90;80.60
40638;DHT22;26336;44.696;10.622;2023-08-01T14:33:50;30.00;81.20
40638;DHT22;26336;44.696;10.622;2023-08-01T14:36:54;30.00;81.40
40638;DHT22;26336;44.696;10.622;2023-08-01T14:39:58;30.10;81.50
40638;DHT22;26336;44.696;10.622;2023-08-01T14:43:02;30.10;81.90
40638;DHT22;26336;44.696;10.622;2023-08-01T14:46:06;30.10;81.10
40638;DHT22;26336;44.696;10.622;2023-08-01T14:49:11;30.20;81.10
40638;DHT22;26336;44.696;10.622;2023-08-01T14:52:15;30.20;81.50
40638;DHT22;26336;44.696;10.622;2023-08-01T14:55:19;30.20;80.10
40638;DHT22;26336;44.696;10.622;2023-08-01T14:58:23;30.20;80.20
40638;DHT22;26336;44.696;10.622;2023-08-01T15:01:27;30.30;79.90
40638;DHT22;26336;44.696;10.622;2023-08-01T15:04:31;30.20;79.00
40638;DHT22;26336;44.696;10.622;2023-08-01T15:07:35;30.20;79.40
40638;DHT22;26336;44.696;10.622;2023-08-01T15:10:39;30.20;80.10
40638;DHT22;26336;44.696;10.622;2023-08-01T15:13:43;30.20;79.20
40638;DHT22;26336;44.696;10.622;2023-08-01T15:16:47;30.20;79.00
40638;DHT22;26336;44.696;10.622;2023-08-01T15:19:51;30.20;79.40
40638;DHT22;26336;44.696;10.622;2023-08-01T15:22:55;30.20;78.60
40638;DHT22;26336;44.696;10.622;2023-08-01T15:25:59;30.20;79.50
40638;DHT22;26336;44.696;10.622;2023-08-01T15:29:03;30.20;79.40
40638;DHT22;26336;44.696;10.622;2023-08-01T15:32:07;30.20;79.60
40638;DHT22;26336;44.696;10.622;2023-08-01T15:35:11;30.20;80.80
40638;DHT22;26336;44.696;10.622;2023-08-01T15:38:16;30.10;80.50
40638;DHT22;26336;44.696;10.622;2023-08-01T15:41:21;30.10;81.30
40638;DHT22;26336;44.696;10.622;2023-08-01T15:44:25;30.10;81.30
40638;DHT22;26336;44.696;10.622;2023-08-01T15:47:29;30.10;81.10
40638;DHT22;26336;44.696;10.622;2023-08-01T15:50:33;30.10;80.60
40638;DHT22;26336;44.696;10.622;2023-08-01T15:53:37;30.10;80.70
40638;DHT22;26336;44.696;10.622;2023-08-01T15:56:41;30.10;80.60
40638;DHT22;26336;44.696;10.622;2023-08-01T15:59:50;30.10;79.90
40638;DHT22;26336;44.696;10.622;2023-08-01T16:02:54;30.10;79.80
40638;DHT22;26336;44.696;10.622;2023-08-01T16:06:01;30.10;80.50
40638;DHT22;26336;44.696;10.622;2023-08-01T16:09:05;30.10;80.50
40638;DHT22;26336;44.696;10.622;2023-08-01T16:12:09;30.10;81.20
40638;DHT22;26336;44.696;10.622;2023-08-01T16:15:12;30.10;80.60
40638;DHT22;26336;44.696;10.622;2023-08-01T16:18:17;30.10;80.20
40638;DHT22;26336;44.696;10.622;2023-08-01T16:21:21;30.10;79.90
40638;DHT22;26336;44.696;10.622;2023-08-01T16:24:25;30.00;80.00
40638;DHT22;26336;44.696;10.622;2023-08-01T16:27:29;30.10;80.60
40638;DHT22;26336;44.696;10.622;2023-08-01T16:30:33;30.10;80.90
40638;DHT22;26336;44.696;10.622;2023-08-01T16:33:37;30.10;81.10
40638;DHT22;26336;44.696;10.622;2023-08-01T16:36:42;30.10;80.80
40638;DHT22;26336;44.696;10.622;2023-08-01T16:39:46;30.20;80.40
40638;DHT22;26336;44.696;10.622;2023-08-01T16:42:51;30.20;80.70
40638;DHT22;26336;44.696;10.622;2023-08-01T16:45:55;30.20;79.90
40638;DHT22;26336;44.696;10.622;2023-08-01T16:49:01;30.10;80.00
40638;DHT22;26336;44.696;10.622;2023-08-01T16:52:06;30.10;80.90
40638;DHT22;26336;44.696;10.622;2023-08-01T16:55:09;30.10;80.10
40638;DHT22;26336;44.696;10.622;2023-08-01T16:58:14;30.10;79.50
40638;DHT22;26336;44.696;10.622;2023-08-01T17:01:18;30.10;79.90
40638;DHT22;26336;44.696;10.622;2023-08-01T17:04:22;30.00;80.40
40638;DHT22;26336;44.696;10.622;2023-08-01T17:07:26;29.90;80.20
40638;DHT22;26336;44.696;10.622;2023-08-01T17:10:34;29.90;80.50
40638;DHT22;26336;44.696;10.622;2023-08-01T17:13:39;29.90;80.30
40638;DHT22;26336;44.696;10.622;2023-08-01T17:16:45;29.90;81.50
40638;DHT22;26336;44.696;10.622;2023-08-01T17:19:49;29.80;82.00
40638;DHT22;26336;44.696;10.622;2023-08-01T17:22:53;29.70;82.00
40638;DHT22;26336;44.696;10.622;2023-08-01T17:25:57;29.60;82.00
40638;DHT22;26336;44.696;10.622;2023-08-01T17:29:01;29.60;82.60
40638;DHT22;26336;44.696;10.622;2023-08-01T17:32:06;29.60;82.80
40638;DHT22;26336;44.696;10.622;2023-08-01T17:35:10;29.50;83.20
40638;DHT22;26336;44.696;10.622;2023-08-01T17:38:14;29.50;83.40
40638;DHT22;26336;44.696;10.622;2023-08-01T17:41:26;29.50;83.60
40638;DHT22;26336;44.696;10.622;2023-08-01T17:44:30;29.40;83.30
40638;DHT22;26336;44.696;10.622;2023-08-01T17:47:34;29.50;83.30
40638;DHT22;26336;44.696;10.622;2023-08-01T17:50:41;29.40;83.30
40638;DHT22;26336;44.696;10.622;2023-08-01T17:53:47;29.40;83.70
40638;DHT22;26336;44.696;10.622;2023-08-01T17:56:56;29.30;83.40
40638;DHT22;26336;44.696;10.622;2023-08-01T17:59:59;29.30;83.70
40638;DHT22;26336;44.696;10.622;2023-08-01T18:03:03;29.30;83.40
40638;DHT22;26336;44.696;10.622;2023-08-01T18:06:11;29.20;84.10
40638;DHT22;26336;44.696;10.622;2023-08-01T18:09:18;29.30;83.40
40638;DHT22;26336;44.696;10.622;2023-08-01T18:12:22;29.20;83.60
40638;DHT22;26336;44.696;10.622;2023-08-01T18:15:26;29.20;83.40
40638;DHT22;26336;44.696;10.622;2023-08-01T18:18:30;29.20;83.70
40638;DHT22;26336;44.696;10.622;2023-08-01T18:21:34;29.20;83.10
40638;DHT22;26336;44.696;10.622;2023-08-01T18:24:38;29.10;82.70
40638;DHT22;26336;44.696;10.622;2023-08-01T18:27:42;29.10;83.00
40638;DHT22;26336;44.696;10.622;2023-08-01T18:30:46;29.10;81.70
40638;DHT22;26336;44.696;10.622;2023-08-01T18:33:50;29.10;82.20
40638;DHT22;26336;44.696;10.622;2023-08-01T18:36:54;29.00;82.40
40638;DHT22;26336;44.696;10.622;2023-08-01T18:39:58;29.00;82.20
40638;DHT22;26336;44.696;10.622;2023-08-01T18:43:02;29.00;82.20
40638;DHT22;26336;44.696;10.622;2023-08-01T18:46:06;29.00;81.10
40638;DHT22;26336;44.696;10.622;2023-08-01T18:49:11;28.90;79.80
40638;DHT22;26336;44.696;10.622;2023-08-01T18:52:16;28.90;80.20
40638;DHT22;26336;44.696;10.622;2023-08-01T18:55:22;28.80;81.20
40638;DHT22;26336;44.696;10.622;2023-08-01T18:58:27;28.80;79.90
40638;DHT22;26336;44.696;10.622;2023-08-01T19:01:31;28.80;80.40
40638;DHT22;26336;44.696;10.622;2023-08-01T19:04:37;28.70;80.40
40638;DHT22;26336;44.696;10.622;2023-08-01T19:07:41;28.60;80.40
40638;DHT22;26336;44.696;10.622;2023-08-01T19:10:45;28.50;80.60
40638;DHT22;26336;44.696;10.622;2023-08-01T19:13:49;28.50;81.10
40638;DHT22;26336;44.696;10.622;2023-08-01T19:16:53;28.40;81.40
40638;DHT22;26336;44.696;10.622;2023-08-01T19:19:57;28.40;81.70
40638;DHT22;26336;44.696;10.622;2023-08-01T19:23:04;28.50;81.60
40638;DHT22;26336;44.696;10.622;2023-08-01T19:26:10;28.50;81.90